sensor_id;sensor_type;location;lat;lon;timestamp;pressure;altitude;pressure_sealevel;temperature
13219;BMP180;6674;49.152;11.918;2023-04-25T00:01:04;95326.84;;;8.24
13219;BMP180;6674;49.152;11.918;2023-04-25T00:03:31;95330.19;;;8.25
13219;BMP180;6674;49.152;11.918;2023-04-25T00:05:58;95319.56;;;8.21
13219;BMP180;6674;49.152;11.918;2023-04-25T00:08:28;95315.28;;;8.16
13219;BMP180;6674;49.152;11.918;2023-04-25T00:10:56;95307.50;;;8.22
13219;BMP180;6674;49.152;11.918;2023-04-25T00:13:22;95304.16;;;8.21
13219;BMP180;6674;49.152;11.918;2023-04-25T00:15:50;95305.88;;;8.27
13219;BMP180;6674;49.152;11.918;2023-04-25T00:18:18;95297.28;;;8.33
13219;BMP180;6674;49.152;11.918;2023-04-25T00:20:45;95305.94;;;8.39
13219;BMP180;6674;49.152;11.918;2023-04-25T00:23:12;95306.47;;;8.41
13219;BMP180;6674;49.152;11.918;2023-04-25T00:25:44;95302.13;;;8.41
13219;BMP180;6674;49.152;11.918;2023-04-25T00:28:11;95311.28;;;8.37
13219;BMP180;6674;49.152;11.918;2023-04-25T00:30:37;95315.25;;;8.33
13219;BMP180;6674;49.152;11.918;2023-04-25T00:33:04;95313.78;;;8.26
13219;BMP180;6674;49.152;11.918;2023-04-25T00:35:35;95309.50;;;8.20
13219;BMP180;6674;49.152;11.918;2023-04-25T00:38:02;95305.16;;;8.20
13219;BMP180;6674;49.152;11.918;2023-04-25T00:40:29;95299.59;;;8.23
13219;BMP180;6674;49.152;11.918;2023-04-25T00:42:57;95295.00;;;8.25
13219;BMP180;6674;49.152;11.918;2023-04-25T00:45:27;95310.28;;;8.20
13219;BMP180;6674;49.152;11.918;2023-04-25T00:47:54;95304.81;;;8.17
13219;BMP180;6674;49.152;11.918;2023-04-25T00:50:21;95295.31;;;8.17
13219;BMP180;6674;49.152;11.918;2023-04-25T00:52:48;95304.03;;;8.17
13219;BMP180;6674;49.152;11.918;2023-04-25T00:55:15;95300.91;;;8.15
13219;BMP180;6674;49.152;11.918;2023-04-25T00:57:42;95292.16;;;8.16
13219;BMP180;6674;49.152;11.918;2023-04-25T01:00:11;95293.75;;;8.17
13219;BMP180;6674;49.152;11.918;2023-04-25T01:02:39;95289.16;;;8.18
13219;BMP180;6674;49.152;11.918;2023-04-25T01:05:07;95283.06;;;8.19
13219;BMP180;6674;49.152;11.918;2023-04-25T01:07:34;95282.63;;;8.22
13219;BMP180;6674;49.152;11.918;2023-04-25T01:10:00;95282.84;;;8.21
13219;BMP180;6674;49.152;11.918;2023-04-25T01:12:28;95288.19;;;8.19
13219;BMP180;6674;49.152;11.918;2023-04-25T01:14:55;95295.88;;;8.19
13219;BMP180;6674;49.152;11.918;2023-04-25T01:17:23;95288.19;;;8.19
13219;BMP180;6674;49.152;11.918;2023-04-25T01:19:49;95288.19;;;8.19
13219;BMP180;6674;49.152;11.918;2023-04-25T01:22:19;95292.72;;;8.17
13219;BMP180;6674;49.152;11.918;2023-04-25T01:24:46;95279.88;;;8.17
13219;BMP180;6674;49.152;11.918;2023-04-25T01:27:13;95285.03;;;8.17
13219;BMP180;6674;49.152;11.918;2023-04-25T01:29:40;95282.31;;;8.13
13219;BMP180;6674;49.152;11.918;2023-04-25T01:32:07;95282.63;;;8.22
13219;BMP180;6674;49.152;11.918;2023-04-25T01:34:34;95282.75;;;8.27
13219;BMP180;6674;49.152;11.918;2023-04-25T01:37:01;95276.38;;;8.30
13219;BMP180;6674;49.152;11.918;2023-04-25T01:39:29;95274.72;;;8.35
13219;BMP180;6674;49.152;11.918;2023-04-25T01:41:56;95283.44;;;8.34
13219;BMP180;6674;49.152;11.918;2023-04-25T01:44:23;95284.34;;;8.40
13219;BMP180;6674;49.152;11.918;2023-04-25T01:46:50;95279.56;;;8.43
13219;BMP180;6674;49.152;11.918;2023-04-25T01:49:16;95278.91;;;8.48
13219;BMP180;6674;49.152;11.918;2023-04-25T01:51:43;95277.91;;;8.49
13219;BMP180;6674;49.152;11.918;2023-04-25T01:54:10;95285.41;;;8.50
13219;BMP180;6674;49.152;11.918;2023-04-25T01:56:39;95286.97;;;8.51
13219;BMP180;6674;49.152;11.918;2023-04-25T01:59:06;95294.03;;;8.56
13219;BMP180;6674;49.152;11.918;2023-04-25T02:01:32;95290.81;;;8.60
13219;BMP180;6674;49.152;11.918;2023-04-25T02:03:59;95284.09;;;8.59
13219;BMP180;6674;49.152;11.918;2023-04-25T02:06:26;95284.31;;;8.58
13219;BMP180;6674;49.152;11.918;2023-04-25T02:08:52;95279.03;;;8.53
13219;BMP180;6674;49.152;11.918;2023-04-25T02:11:19;95279.81;;;8.53
13219;BMP180;6674;49.152;11.918;2023-04-25T02:13:47;95279.69;;;8.48
13219;BMP180;6674;49.152;11.918;2023-04-25T02:16:13;95274.72;;;8.35
13219;BMP180;6674;49.152;11.918;2023-04-25T02:18:40;95280.19;;;8.27
13219;BMP180;6674;49.152;11.918;2023-04-25T02:21:07;95279.16;;;8.28
13219;BMP180;6674;49.152;11.918;2023-04-25T02:23:34;95279.47;;;8.20
13219;BMP180;6674;49.152;11.918;2023-04-25T02:26:01;95279.47;;;8.20
13219;BMP180;6674;49.152;11.918;2023-04-25T02:28:27;95269.19;;;8.20
13219;BMP180;6674;49.152;11.918;2023-04-25T02:30:55;95278.75;;;8.14
13219;BMP180;6674;49.152;11.918;2023-04-25T02:33:22;95278.75;;;8.14
13219;BMP180;6674;49.152;11.918;2023-04-25T02:35:49;95275.41;;;8.13
13219;BMP180;6674;49.152;11.918;2023-04-25T02:38:15;95273.25;;;8.10
13219;BMP180;6674;49.152;11.918;2023-04-25T02:40:42;95272.09;;;8.06
13219;BMP180;6674;49.152;11.918;2023-04-25T02:43:08;95262.84;;;8.05
13219;BMP180;6674;49.152;11.918;2023-04-25T02:45:35;95270.63;;;7.99
13219;BMP180;6674;49.152;11.918;2023-04-25T02:48:04;95266.91;;;7.95
13219;BMP180;6674;49.152;11.918;2023-04-25T02:50:31;95261.75;;;7.95
13219;BMP180;6674;49.152;11.918;2023-04-25T02:52:58;95254.53;;;7.92
13219;BMP180;6674;49.152;11.918;2023-04-25T02:55:27;95254.31;;;7.93
13219;BMP180;6674;49.152;11.918;2023-04-25T02:57:54;95254.94;;;7.89
13219;BMP180;6674;49.152;11.918;2023-04-25T03:00:21;95257.50;;;7.89
13219;BMP180;6674;49.152;11.918;2023-04-25T03:02:48;95256.22;;;7.80
13219;BMP180;6674;49.152;11.918;2023-04-25T03:05:16;95240.81;;;7.80
13219;BMP180;6674;49.152;11.918;2023-04-25T03:07:43;95233.25;;;7.85
13219;BMP180;6674;49.152;11.918;2023-04-25T03:10:11;95236.63;;;7.85
13219;BMP180;6674;49.152;11.918;2023-04-25T03:12:37;95235.59;;;7.86
13219;BMP180;6674;49.152;11.918;2023-04-25T03:15:05;95236.41;;;7.87
13219;BMP180;6674;49.152;11.918;2023-04-25T03:17:32;95224.56;;;7.86
13219;BMP180;6674;49.152;11.918;2023-04-25T03:19:58;95231.28;;;7.87
13219;BMP180;6674;49.152;11.918;2023-04-25T03:22:26;95227.97;;;7.80
13219;BMP180;6674;49.152;11.918;2023-04-25T03:24:53;95236.50;;;7.80
13219;BMP180;6674;49.152;11.918;2023-04-25T03:27:19;95222.28;;;7.78
13219;BMP180;6674;49.152;11.918;2023-04-25T03:29:46;95221.28;;;7.79
13219;BMP180;6674;49.152;11.918;2023-04-25T03:32:13;95229.00;;;7.79
13219;BMP180;6674;49.152;11.918;2023-04-25T03:34:39;95228.88;;;7.74
13219;BMP180;6674;49.152;11.918;2023-04-25T03:37:06;95227.84;;;7.75
13219;BMP180;6674;49.152;11.918;2023-04-25T03:39:34;95230.84;;;7.72
13219;BMP180;6674;49.152;11.918;2023-04-25T03:42:01;95236.63;;;7.68
13219;BMP180;6674;49.152;11.918;2023-04-25T03:44:28;95237.97;;;7.70
13219;BMP180;6674;49.152;11.918;2023-04-25T03:46:54;95230.13;;;7.65
13219;BMP180;6674;49.152;11.918;2023-04-25T03:49:21;95241.41;;;7.64
13219;BMP180;6674;49.152;11.918;2023-04-25T03:51:47;95235.91;;;7.61
13219;BMP180;6674;49.152;11.918;2023-04-25T03:54:14;95237.13;;;7.58
13219;BMP180;6674;49.152;11.918;2023-04-25T03:56:42;95238.13;;;7.57
13219;BMP180;6674;49.152;11.918;2023-04-25T03:59:09;95241.50;;;7.58
13219;BMP180;6674;49.152;11.918;2023-04-25T04:01:35;95235.97;;;7.54
13219;BMP180;6674;49.152;11.918;2023-04-25T04:04:02;95245.38;;;7.60
13219;BMP180;6674;49.152;11.918;2023-04-25T04:06:29;95236.72;;;7.61
13219;BMP180;6674;49.152;11.918;2023-04-25T04:08:56;95231.00;;;7.59
13219;BMP180;6674;49.152;11.918;2023-04-25T04:11:23;95232.91;;;7.64
13219;BMP180;6674;49.152;11.918;2023-04-25T04:13:51;95229.50;;;7.70
13219;BMP180;6674;49.152;11.918;2023-04-25T04:16:17;95225.28;;;7.75
13219;BMP180;6674;49.152;11.918;2023-04-25T04:18:45;95232.69;;;7.83
13219;BMP180;6674;49.152;11.918;2023-04-25T04:21:12;95229.28;;;7.89
13219;BMP180;6674;49.152;11.918;2023-04-25T04:23:38;95235.88;;;7.96
13219;BMP180;6674;49.152;11.918;2023-04-25T04:26:05;95222.97;;;8.03
13219;BMP180;6674;49.152;11.918;2023-04-25T04:28:32;95221.53;;;8.07
13219;BMP180;6674;49.152;11.918;2023-04-25T04:31:00;95220.69;;;8.13
13219;BMP180;6674;49.152;11.918;2023-04-25T04:33:27;95220.69;;;8.13
13219;BMP180;6674;49.152;11.918;2023-04-25T04:35:54;95215.13;;;8.16
13219;BMP180;6674;49.152;11.918;2023-04-25T04:38:21;95222.03;;;8.15
13219;BMP180;6674;49.152;11.918;2023-04-25T04:40:48;95208.44;;;8.15
13219;BMP180;6674;49.152;11.918;2023-04-25T04:43:15;95217.03;;;8.20
13219;BMP180;6674;49.152;11.918;2023-04-25T04:45:42;95215.69;;;8.17
13219;BMP180;6674;49.152;11.918;2023-04-25T04:48:11;95222.94;;;8.20
13219;BMP180;6674;49.152;11.918;2023-04-25T04:50:39;95227.53;;;8.18
13219;BMP180;6674;49.152;11.918;2023-04-25T04:53:07;95225.38;;;8.16
13219;BMP180;6674;49.152;11.918;2023-04-25T04:55:33;95233.53;;;8.13
13219;BMP180;6674;49.152;11.918;2023-04-25T04:58:00;95224.66;;;8.09
13219;BMP180;6674;49.152;11.918;2023-04-25T05:00:27;95225.25;;;8.11
13219;BMP180;6674;49.152;11.918;2023-04-25T05:02:54;95224.53;;;8.04
13219;BMP180;6674;49.152;11.918;2023-04-25T05:05:22;95232.81;;;8.06
13219;BMP180;6674;49.152;11.918;2023-04-25T05:07:49;95232.25;;;8.04
13219;BMP180;6674;49.152;11.918;2023-04-25T05:10:16;95234.59;;;8.05
13219;BMP180;6674;49.152;11.918;2023-04-25T05:12:43;95233.34;;;8.08
13219;BMP180;6674;49.152;11.918;2023-04-25T05:15:10;95232.59;;;8.07
13219;BMP180;6674;49.152;11.918;2023-04-25T05:17:37;95236.09;;;8.13
13219;BMP180;6674;49.152;11.918;2023-04-25T05:20:05;95231.59;;;8.08
13219;BMP180;6674;49.152;11.918;2023-04-25T05:22:33;95237.66;;;8.14
13219;BMP180;6674;49.152;11.918;2023-04-25T05:25:00;95243.50;;;8.20
13219;BMP180;6674;49.152;11.918;2023-04-25T05:27:26;95242.09;;;8.24
13219;BMP180;6674;49.152;11.918;2023-04-25T05:29:53;95236.72;;;8.26
13219;BMP180;6674;49.152;11.918;2023-04-25T05:32:20;95245.75;;;8.28
13219;BMP180;6674;49.152;11.918;2023-04-25T05:34:46;95240.88;;;8.38
13219;BMP180;6674;49.152;11.918;2023-04-25T05:37:13;95239.72;;;8.52
13219;BMP180;6674;49.152;11.918;2023-04-25T05:39:41;95234.34;;;8.54
13219;BMP180;6674;49.152;11.918;2023-04-25T05:42:07;95233.56;;;8.64
13219;BMP180;6674;49.152;11.918;2023-04-25T05:44:34;95245.13;;;8.73
13219;BMP180;6674;49.152;11.918;2023-04-25T05:47:01;95237.19;;;8.75
13219;BMP180;6674;49.152;11.918;2023-04-25T05:49:29;95240.53;;;8.75
13219;BMP180;6674;49.152;11.918;2023-04-25T05:51:56;95239.44;;;8.83
13219;BMP180;6674;49.152;11.918;2023-04-25T05:54:22;95233.50;;;8.94
13219;BMP180;6674;49.152;11.918;2023-04-25T05:56:51;95232.97;;;8.92
13219;BMP180;6674;49.152;11.918;2023-04-25T05:59:17;95223.09;;;8.89
13219;BMP180;6674;49.152;11.918;2023-04-25T06:01:44;95226.38;;;8.96
13219;BMP180;6674;49.152;11.918;2023-04-25T06:04:11;95229.94;;;8.95
13219;BMP180;6674;49.152;11.918;2023-04-25T06:06:38;95216.63;;;8.86
13219;BMP180;6674;49.152;11.918;2023-04-25T06:09:05;95224.56;;;8.73
13219;BMP180;6674;49.152;11.918;2023-04-25T06:11:31;95224.44;;;8.80
13219;BMP180;6674;49.152;11.918;2023-04-25T06:14:00;95233.59;;;8.76
13219;BMP180;6674;49.152;11.918;2023-04-25T06:16:27;95226.00;;;8.81
13219;BMP180;6674;49.152;11.918;2023-04-25T06:18:54;95238.88;;;8.92
13219;BMP180;6674;49.152;11.918;2023-04-25T06:21:20;95243.78;;;8.94
13219;BMP180;6674;49.152;11.918;2023-04-25T06:23:47;95225.13;;;8.98
13219;BMP180;6674;49.152;11.918;2023-04-25T06:26:14;95232.06;;;8.98
13219;BMP180;6674;49.152;11.918;2023-04-25T06:28:40;95236.09;;;8.94
13219;BMP180;6674;49.152;11.918;2023-04-25T06:31:08;95230.72;;;8.84
13219;BMP180;6674;49.152;11.918;2023-04-25T06:33:35;95232.97;;;8.92
13219;BMP180;6674;49.152;11.918;2023-04-25T06:36:02;95228.47;;;8.99
13219;BMP180;6674;49.152;11.918;2023-04-25T06:38:29;95232.06;;;8.98
13219;BMP180;6674;49.152;11.918;2023-04-25T06:40:56;95219.78;;;9.00
13219;BMP180;6674;49.152;11.918;2023-04-25T06:43:23;95226.28;;;9.02
13219;BMP180;6674;49.152;11.918;2023-04-25T06:45:50;95238.09;;;8.92
13219;BMP180;6674;49.152;11.918;2023-04-25T06:48:18;95225.78;;;8.94
13219;BMP180;6674;49.152;11.918;2023-04-25T06:50:45;95229.16;;;8.94
13219;BMP180;6674;49.152;11.918;2023-04-25T06:53:11;95226.03;;;9.03
13219;BMP180;6674;49.152;11.918;2023-04-25T06:55:38;95223.94;;;9.12
13219;BMP180;6674;49.152;11.918;2023-04-25T06:58:05;95222.34;;;9.11
13219;BMP180;6674;49.152;11.918;2023-04-25T07:00:32;95236.09;;;8.94
13219;BMP180;6674;49.152;11.918;2023-04-25T07:02:59;95230.94;;;9.05
13219;BMP180;6674;49.152;11.918;2023-04-25T07:05:27;95236.47;;;9.08
13219;BMP180;6674;49.152;11.918;2023-04-25T07:07:54;95231.06;;;9.10
13219;BMP180;6674;49.152;11.918;2023-04-25T07:10:21;95238.88;;;9.15
13219;BMP180;6674;49.152;11.918;2023-04-25T07:12:48;95240.56;;;9.09
13219;BMP180;6674;49.152;11.918;2023-04-25T07:15:15;95234.00;;;9.02
13219;BMP180;6674;49.152;11.918;2023-04-25T07:17:42;95232.06;;;8.98
13219;BMP180;6674;49.152;11.918;2023-04-25T07:20:09;95237.22;;;9.20
13219;BMP180;6674;49.152;11.918;2023-04-25T07:22:37;95237.78;;;9.34
13219;BMP180;6674;49.152;11.918;2023-04-25T07:25:04;95249.19;;;9.38
13219;BMP180;6674;49.152;11.918;2023-04-25T07:27:31;95241.47;;;9.49
13219;BMP180;6674;49.152;11.918;2023-04-25T07:29:58;95231.72;;;9.62
13219;BMP180;6674;49.152;11.918;2023-04-25T07:32:25;95237.94;;;9.78
13219;BMP180;6674;49.152;11.918;2023-04-25T07:34:52;95222.19;;;9.74
13219;BMP180;6674;49.152;11.918;2023-04-25T07:37:18;95227.09;;;9.76
13219;BMP180;6674;49.152;11.918;2023-04-25T07:39:47;95235.41;;;9.55
13219;BMP180;6674;49.152;11.918;2023-04-25T07:42:14;95226.19;;;9.82
13219;BMP180;6674;49.152;11.918;2023-04-25T07:44:41;95229.69;;;9.76
13219;BMP180;6674;49.152;11.918;2023-04-25T07:47:08;95244.00;;;9.94
13219;BMP180;6674;49.152;11.918;2023-04-25T07:49:36;95234.25;;;9.96
13219;BMP180;6674;49.152;11.918;2023-04-25T07:52:04;95231.38;;;10.21
13219;BMP180;6674;49.152;11.918;2023-04-25T07:54:32;95235.47;;;9.94
13219;BMP180;6674;49.152;11.918;2023-04-25T07:57:00;95234.91;;;10.03
13219;BMP180;6674;49.152;11.918;2023-04-25T07:59:27;95230.59;;;10.09
13219;BMP180;6674;49.152;11.918;2023-04-25T08:01:54;95230.13;;;10.23
13219;BMP180;6674;49.152;11.918;2023-04-25T08:04:22;95227.25;;;10.08
13219;BMP180;6674;49.152;11.918;2023-04-25T08:06:49;95217.31;;;9.89
13219;BMP180;6674;49.152;11.918;2023-04-25T08:09:16;95227.81;;;10.10
13219;BMP180;6674;49.152;11.918;2023-04-25T08:11:43;95229.88;;;10.25
13219;BMP180;6674;49.152;11.918;2023-04-25T08:14:11;95228.56;;;10.22
13219;BMP180;6674;49.152;11.918;2023-04-25T08:16:38;95236.31;;;10.22
13219;BMP180;6674;49.152;11.918;2023-04-25T08:19:04;95241.06;;;10.30
13219;BMP180;6674;49.152;11.918;2023-04-25T08:21:31;95249.19;;;10.50
13219;BMP180;6674;49.152;11.918;2023-04-25T08:23:58;95243.66;;;10.58
13219;BMP180;6674;49.152;11.918;2023-04-25T08:26:25;95242.13;;;10.45
13219;BMP180;6674;49.152;11.918;2023-04-25T08:28:52;95243.09;;;10.28
13219;BMP180;6674;49.152;11.918;2023-04-25T08:31:20;95240.84;;;10.32
13219;BMP180;6674;49.152;11.918;2023-04-25T08:33:47;95250.38;;;10.31
13219;BMP180;6674;49.152;11.918;2023-04-25T08:36:14;95239.59;;;10.62
13219;BMP180;6674;49.152;11.918;2023-04-25T08:38:41;95245.56;;;10.23
13219;BMP180;6674;49.152;11.918;2023-04-25T08:41:08;95247.41;;;10.67
13219;BMP180;6674;49.152;11.918;2023-04-25T08:43:37;95254.44;;;10.71
13219;BMP180;6674;49.152;11.918;2023-04-25T08:46:07;95260.38;;;10.72
13219;BMP180;6674;49.152;11.918;2023-04-25T08:48:35;95253.91;;;10.69
13219;BMP180;6674;49.152;11.918;2023-04-25T08:51:03;95278.22;;;10.73
13219;BMP180;6674;49.152;11.918;2023-04-25T08:53:32;95265.28;;;10.57
13219;BMP180;6674;49.152;11.918;2023-04-25T08:56:01;95271.53;;;10.61
13219;BMP180;6674;49.152;11.918;2023-04-25T08:58:28;95272.56;;;10.32
13219;BMP180;6674;49.152;11.918;2023-04-25T09:00:55;95288.50;;;10.57
13219;BMP180;6674;49.152;11.918;2023-04-25T09:03:22;95292.53;;;10.53
13219;BMP180;6674;49.152;11.918;2023-04-25T09:05:50;95298.31;;;10.04
13219;BMP180;6674;49.152;11.918;2023-04-25T09:08:18;95317.34;;;9.58
13219;BMP180;6674;49.152;11.918;2023-04-25T09:10:44;95314.34;;;9.61
13219;BMP180;6674;49.152;11.918;2023-04-25T09:13:12;95314.56;;;9.93
13219;BMP180;6674;49.152;11.918;2023-04-25T09:15:47;95307.38;;;9.84
13219;BMP180;6674;49.152;11.918;2023-04-25T09:18:22;95317.34;;;9.81
13219;BMP180;6674;49.152;11.918;2023-04-25T09:20:51;95313.88;;;9.52
13219;BMP180;6674;49.152;11.918;2023-04-25T09:23:19;95322.28;;;9.71
13219;BMP180;6674;49.152;11.918;2023-04-25T09:25:47;95326.06;;;9.80
13219;BMP180;6674;49.152;11.918;2023-04-25T09:28:14;95326.63;;;10.16
13219;BMP180;6674;49.152;11.918;2023-04-25T09:30:41;95331.81;;;10.04
13219;BMP180;6674;49.152;11.918;2023-04-25T09:33:09;95326.16;;;9.85
13219;BMP180;6674;49.152;11.918;2023-04-25T09:35:37;95339.53;;;9.93
13219;BMP180;6674;49.152;11.918;2023-04-25T09:38:10;95328.19;;;10.05
13219;BMP180;6674;49.152;11.918;2023-04-25T09:40:41;95334.03;;;10.51
13219;BMP180;6674;49.152;11.918;2023-04-25T09:43:18;95336.25;;;10.48
13219;BMP180;6674;49.152;11.918;2023-04-25T09:45:46;95328.03;;;10.62
13219;BMP180;6674;49.152;11.918;2023-04-25T09:48:17;95335.34;;;9.92
13219;BMP180;6674;49.152;11.918;2023-04-25T09:50:44;95351.59;;;9.47
13219;BMP180;6674;49.152;11.918;2023-04-25T09:53:12;95335.81;;;9.44
13219;BMP180;6674;49.152;11.918;2023-04-25T09:55:39;95347.13;;;9.31
13219;BMP180;6674;49.152;11.918;2023-04-25T09:58:08;95359.00;;;9.03
13219;BMP180;6674;49.152;11.918;2023-04-25T10:00:37;95354.59;;;8.92
13219;BMP180;6674;49.152;11.918;2023-04-25T10:03:05;95362.94;;;9.05
13219;BMP180;6674;49.152;11.918;2023-04-25T10:05:34;95355.00;;;9.07
13219;BMP180;6674;49.152;11.918;2023-04-25T10:08:03;95352.00;;;9.33
13219;BMP180;6674;49.152;11.918;2023-04-25T10:10:32;95362.56;;;9.31
13219;BMP180;6674;49.152;11.918;2023-04-25T10:13:03;95344.09;;;9.91
13219;BMP180;6674;49.152;11.918;2023-04-25T10:15:31;95344.97;;;10.31
13219;BMP180;6674;49.152;11.918;2023-04-25T10:17:58;95342.34;;;10.42
13219;BMP180;6674;49.152;11.918;2023-04-25T10:20:25;95340.00;;;10.40
13219;BMP180;6674;49.152;11.918;2023-04-25T10:22:54;95342.59;;;10.68
13219;BMP180;6674;49.152;11.918;2023-04-25T10:25:22;95339.25;;;11.12
13219;BMP180;6674;49.152;11.918;2023-04-25T10:27:51;95339.34;;;11.33
13219;BMP180;6674;49.152;11.918;2023-04-25T10:30:18;95327.97;;;11.34
13219;BMP180;6674;49.152;11.918;2023-04-25T10:32:45;95329.13;;;11.54
13219;BMP180;6674;49.152;11.918;2023-04-25T10:35:16;95332.56;;;11.60
13219;BMP180;6674;49.152;11.918;2023-04-25T10:37:59;95329.63;;;11.89
13219;BMP180;6674;49.152;11.918;2023-04-25T10:40:26;95333.47;;;11.86
13219;BMP180;6674;49.152;11.918;2023-04-25T10:42:55;95340.69;;;11.52
13219;BMP180;6674;49.152;11.918;2023-04-25T10:45:22;95331.75;;;11.43
13219;BMP180;6674;49.152;11.918;2023-04-25T10:47:49;95331.22;;;11.41
13219;BMP180;6674;49.152;11.918;2023-04-25T10:50:16;95330.53;;;11.01
13219;BMP180;6674;49.152;11.918;2023-04-25T10:52:43;95332.00;;;11.25
13219;BMP180;6674;49.152;11.918;2023-04-25T10:55:10;95333.66;;;11.31
13219;BMP180;6674;49.152;11.918;2023-04-25T10:57:39;95329.91;;;11.55
13219;BMP180;6674;49.152;11.918;2023-04-25T11:00:10;95333.47;;;11.86
13219;BMP180;6674;49.152;11.918;2023-04-25T11:02:40;95328.53;;;12.22
13219;BMP180;6674;49.152;11.918;2023-04-25T11:05:08;95327.75;;;12.22
13219;BMP180;6674;49.152;11.918;2023-04-25T11:07:38;95316.72;;;11.72
13219;BMP180;6674;49.152;11.918;2023-04-25T11:10:06;95330.00;;;11.97
13219;BMP180;6674;49.152;11.918;2023-04-25T11:12:33;95323.41;;;12.48
13219;BMP180;6674;49.152;11.918;2023-04-25T11:15:04;95325.03;;;12.54
13219;BMP180;6674;49.152;11.918;2023-04-25T11:17:33;95336.03;;;12.45
13219;BMP180;6674;49.152;11.918;2023-04-25T11:20:00;95331.13;;;12.44
13219;BMP180;6674;49.152;11.918;2023-04-25T11:22:31;95323.88;;;12.03
13219;BMP180;6674;49.152;11.918;2023-04-25T11:24:58;95323.16;;;12.07
13219;BMP180;6674;49.152;11.918;2023-04-25T11:27:24;95328.75;;;12.21
13219;BMP180;6674;49.152;11.918;2023-04-25T11:29:51;95334.56;;;11.90
13219;BMP180;6674;49.152;11.918;2023-04-25T11:32:18;95330.03;;;11.64
13219;BMP180;6674;49.152;11.918;2023-04-25T11:34:46;95321.94;;;12.15
13219;BMP180;6674;49.152;11.918;2023-04-25T11:37:14;95314.00;;;12.00
13219;BMP180;6674;49.152;11.918;2023-04-25T11:39:43;95319.34;;;12.52
13219;BMP180;6674;49.152;11.918;2023-04-25T11:42:11;95320.78;;;12.70
13219;BMP180;6674;49.152;11.918;2023-04-25T11:44:38;95320.44;;;12.61
13219;BMP180;6674;49.152;11.918;2023-04-25T11:47:05;95320.75;;;12.44
13219;BMP180;6674;49.152;11.918;2023-04-25T11:49:32;95328.50;;;12.01
13219;BMP180;6674;49.152;11.918;2023-04-25T11:52:01;95339.69;;;12.28
13219;BMP180;6674;49.152;11.918;2023-04-25T11:54:28;95330.56;;;11.99
13219;BMP180;6674;49.152;11.918;2023-04-25T11:56:55;95318.47;;;11.34
13219;BMP180;6674;49.152;11.918;2023-04-25T11:59:24;95326.34;;;11.44
13219;BMP180;6674;49.152;11.918;2023-04-25T12:01:51;95327.38;;;11.27
13219;BMP180;6674;49.152;11.918;2023-04-25T12:04:20;95332.06;;;11.79
13219;BMP180;6674;49.152;11.918;2023-04-25T12:06:48;95334.34;;;12.13
13219;BMP180;6674;49.152;11.918;2023-04-25T12:09:18;95338.22;;;12.32
13219;BMP180;6674;49.152;11.918;2023-04-25T12:11:47;95335.56;;;12.27
13219;BMP180;6674;49.152;11.918;2023-04-25T12:14:21;95324.97;;;12.49
13219;BMP180;6674;49.152;11.918;2023-04-25T12:16:49;95332.38;;;12.62
13219;BMP180;6674;49.152;11.918;2023-04-25T12:19:18;95335.53;;;11.84
13219;BMP180;6674;49.152;11.918;2023-04-25T12:21:45;95331.88;;;12.23
13219;BMP180;6674;49.152;11.918;2023-04-25T12:24:14;95332.84;;;11.96
13219;BMP180;6674;49.152;11.918;2023-04-25T12:26:49;95327.38;;;11.60
13219;BMP180;6674;49.152;11.918;2023-04-25T12:29:21;95327.47;;;11.64
13219;BMP180;6674;49.152;11.918;2023-04-25T12:31:53;95332.03;;;11.95
13219;BMP180;6674;49.152;11.918;2023-04-25T12:34:22;95337.84;;;12.02
13219;BMP180;6674;49.152;11.918;2023-04-25T12:36:50;95339.88;;;12.43
13219;BMP180;6674;49.152;11.918;2023-04-25T12:39:18;95338.84;;;12.86
13219;BMP180;6674;49.152;11.918;2023-04-25T12:41:45;95339.75;;;12.33
13219;BMP180;6674;49.152;11.918;2023-04-25T12:44:14;95348.22;;;12.45
13219;BMP180;6674;49.152;11.918;2023-04-25T12:46:41;95351.69;;;12.34
13219;BMP180;6674;49.152;11.918;2023-04-25T12:49:08;95352.28;;;11.65
13219;BMP180;6674;49.152;11.918;2023-04-25T12:51:35;95353.88;;;11.50
13219;BMP180;6674;49.152;11.918;2023-04-25T12:54:04;95353.91;;;11.39
13219;BMP180;6674;49.152;11.918;2023-04-25T12:56:31;95353.38;;;11.53
13219;BMP180;6674;49.152;11.918;2023-04-25T12:58:58;95355.53;;;11.45
13219;BMP180;6674;49.152;11.918;2023-04-25T13:01:26;95372.59;;;11.29
13219;BMP180;6674;49.152;11.918;2023-04-25T13:03:53;95373.63;;;11.01
13219;BMP180;6674;49.152;11.918;2023-04-25T13:06:20;95361.63;;;11.50
13219;BMP180;6674;49.152;11.918;2023-04-25T13:08:47;95366.44;;;11.63
13219;BMP180;6674;49.152;11.918;2023-04-25T13:11:14;95371.59;;;11.79
13219;BMP180;6674;49.152;11.918;2023-04-25T13:13:41;95361.47;;;11.73
13219;BMP180;6674;49.152;11.918;2023-04-25T13:16:08;95368.56;;;11.50
13219;BMP180;6674;49.152;11.918;2023-04-25T13:18:37;95355.84;;;11.81
13219;BMP180;6674;49.152;11.918;2023-04-25T13:21:03;95369.44;;;11.71
13219;BMP180;6674;49.152;11.918;2023-04-25T13:23:30;95366.38;;;11.58
13219;BMP180;6674;49.152;11.918;2023-04-25T13:25:57;95380.19;;;11.36
13219;BMP180;6674;49.152;11.918;2023-04-25T13:28:24;95378.31;;;10.87
13219;BMP180;6674;49.152;11.918;2023-04-25T13:30:51;95377.91;;;11.23
13219;BMP180;6674;49.152;11.918;2023-04-25T13:33:18;95380.53;;;11.12
13219;BMP180;6674;49.152;11.918;2023-04-25T13:35:48;95384.25;;;11.32
13219;BMP180;6674;49.152;11.918;2023-04-25T13:38:20;95387.44;;;11.50
13219;BMP180;6674;49.152;11.918;2023-04-25T13:40:46;95379.59;;;11.78
13219;BMP180;6674;49.152;11.918;2023-04-25T13:43:13;95378.56;;;11.95
13219;BMP180;6674;49.152;11.918;2023-04-25T13:45:40;95388.44;;;11.98
13219;BMP180;6674;49.152;11.918;2023-04-25T13:48:07;95377.31;;;11.98
13219;BMP180;6674;49.152;11.918;2023-04-25T13:50:33;95386.31;;;12.54
13219;BMP180;6674;49.152;11.918;2023-04-25T13:53:01;95383.72;;;12.54
13219;BMP180;6674;49.152;11.918;2023-04-25T13:55:28;95380.31;;;12.48
13219;BMP180;6674;49.152;11.918;2023-04-25T13:57:55;95381.88;;;12.49
13219;BMP180;6674;49.152;11.918;2023-04-25T14:00:25;95383.78;;;12.38
13219;BMP180;6674;49.152;11.918;2023-04-25T14:02:51;95389.13;;;12.48
13219;BMP180;6674;49.152;11.918;2023-04-25T14:05:18;95402.22;;;11.71
13219;BMP180;6674;49.152;11.918;2023-04-25T14:07:45;95399.56;;;11.66
13219;BMP180;6674;49.152;11.918;2023-04-25T14:10:13;95401.59;;;11.80
13219;BMP180;6674;49.152;11.918;2023-04-25T14:12:41;95407.75;;;11.47
13219;BMP180;6674;49.152;11.918;2023-04-25T14:15:08;95410.63;;;11.62
13219;BMP180;6674;49.152;11.918;2023-04-25T14:17:36;95411.88;;;11.31